Ashton, Idaho
Current Conditions -  °F | °C
As of 6:53 AM on Monday 20 Oct 2014 (Local Time) from KRXE Reporting Station
Clear Clear  
Wind Chill: -3°   Ceiling: Unl
Heat Index:   Visibility: 10mi
Dew Point: -2°   Wind: 7mph
Humidity: 82%   Direction: 40°NE
Pressure: 30.07"   Gusts: NA
Location:  44.07°N, 111.45°W
Report Text: KRXE 201253Z AUTO 04006KT 10SM CLR 01/M02 A3007 RMK AO2 SLP180 T00061022
Loading
Personal Weather Stations






























Interactive Weather Map
Tropical Storm Tracking
New forecast layout! Learn more

10-Day Weather Forecast

Advertisements
Track Severe Weather on mobile